createdAt,value
2018-03-31T00:00:38.085Z,18.83
2018-03-31T00:02:38.990Z,18.87
2018-03-31T00:04:39.921Z,18.77
2018-03-31T00:06:41.556Z,18.97
2018-03-31T00:08:42.420Z,18.53
2018-03-31T00:10:43.269Z,19.10
2018-03-31T00:12:44.359Z,18.30
2018-03-31T00:14:45.375Z,17.70
2018-03-31T00:16:46.542Z,19.00
2018-03-31T00:18:47.508Z,17.20
2018-03-31T00:20:48.526Z,18.83
2018-03-31T00:22:49.600Z,16.83
2018-03-31T00:24:50.608Z,16.83
2018-03-31T00:26:51.531Z,16.17
2018-03-31T00:28:52.408Z,18.07
2018-03-31T00:30:53.265Z,15.60
2018-03-31T00:32:54.144Z,16.83
2018-03-31T00:34:55.012Z,16.47
2018-03-31T00:36:55.928Z,17.83
2018-03-31T00:38:56.799Z,17.83
2018-03-31T00:40:57.720Z,16.83
2018-03-31T00:42:58.628Z,16.70
2018-03-31T00:44:59.514Z,15.20
2018-03-31T00:47:00.395Z,16.50
2018-03-31T00:49:02.004Z,16.57
2018-03-31T00:51:03.038Z,19.98
2018-03-31T00:53:04.075Z,17.80
2018-03-31T00:55:05.092Z,17.30
2018-03-31T00:57:06.114Z,17.80
2018-03-31T00:59:07.064Z,16.77
2018-03-31T01:01:07.908Z,17.77
2018-03-31T01:03:09.780Z,17.00
2018-03-31T01:05:10.699Z,17.60
2018-03-31T01:07:11.558Z,16.20
2018-03-31T01:09:12.475Z,17.60
2018-03-31T01:11:13.643Z,16.33
2018-03-31T01:13:14.621Z,17.10
2018-03-31T01:15:15.807Z,17.10
2018-03-31T01:17:16.754Z,16.93
2018-03-31T01:19:17.719Z,17.37
2018-03-31T01:21:18.678Z,16.90
2018-03-31T01:23:19.613Z,16.57
2018-03-31T01:25:20.528Z,16.80
2018-03-31T01:27:21.395Z,16.20
2018-03-31T01:29:22.370Z,19.25
2018-03-31T01:31:23.939Z,19.00
2018-03-31T01:33:24.827Z,17.33
2018-03-31T01:35:25.699Z,16.80
2018-03-31T01:37:26.743Z,16.30
2018-03-31T01:39:27.788Z,17.67
2018-03-31T01:41:28.631Z,16.80
2018-03-31T01:43:30.148Z,15.73
2018-03-31T01:45:31.738Z,15.63
2018-03-31T01:47:32.635Z,17.33
2018-03-31T01:49:33.683Z,17.00
2018-03-31T01:51:34.786Z,17.13
2018-03-31T01:53:35.733Z,16.80
2018-03-31T01:55:36.611Z,16.80
2018-03-31T01:57:37.560Z,17.40
2018-03-31T01:59:38.552Z,17.47
2018-03-31T02:01:40.130Z,18.00
2018-03-31T02:03:41.099Z,18.00
2018-03-31T02:05:42.046Z,17.77
2018-03-31T02:07:42.897Z,17.00
2018-03-31T02:09:43.820Z,17.00
2018-03-31T02:11:44.825Z,17.50
2018-03-31T02:13:45.750Z,17.20
2018-03-31T02:15:46.709Z,17.93
2018-03-31T02:17:48.569Z,17.40
2018-03-31T02:19:50.388Z,18.97
2018-03-31T02:21:51.328Z,17.10
2018-03-31T02:23:52.219Z,17.90
2018-03-31T02:25:53.925Z,18.23
2018-03-31T02:27:54.840Z,18.70
2018-03-31T02:29:56.495Z,18.63
2018-03-31T02:31:58.097Z,17.77
2018-03-31T02:33:59.046Z,18.70
2018-03-31T02:36:00.001Z,17.17
2018-03-31T02:38:00.871Z,16.27
2018-03-31T02:40:01.907Z,17.90
2018-03-31T02:42:02.816Z,18.37
2018-03-31T02:44:03.747Z,18.00
2018-03-31T02:46:04.711Z,19.37
2018-03-31T02:48:05.651Z,16.90
2018-03-31T02:50:06.525Z,18.83
2018-03-31T02:52:07.435Z,18.63
2018-03-31T02:54:08.294Z,18.60
2018-03-31T02:56:10.029Z,17.50
2018-03-31T02:58:10.975Z,17.70
2018-03-31T03:00:12.026Z,18.57
2018-03-31T03:02:13.782Z,19.13
2018-03-31T03:04:15.478Z,18.53
2018-03-31T03:06:16.655Z,21.00
2018-03-31T03:08:17.758Z,21.47
2018-03-31T03:10:19.509Z,19.50
2018-03-31T03:12:20.480Z,18.53
2018-03-31T03:14:21.368Z,19.47
2018-03-31T03:16:22.292Z,18.17
2018-03-31T03:18:23.149Z,18.93
2018-03-31T03:20:24.830Z,17.63
2018-03-31T03:22:25.675Z,17.77
2018-03-31T03:24:26.559Z,18.60
2018-03-31T03:26:27.461Z,17.80
2018-03-31T03:28:28.331Z,18.40
2018-03-31T03:30:29.940Z,18.60
2018-03-31T03:32:30.844Z,19.93
2018-03-31T03:34:31.811Z,19.20
2018-03-31T03:36:32.764Z,17.30
2018-03-31T03:38:33.692Z,18.60
2018-03-31T03:40:34.732Z,18.57
2018-03-31T03:42:35.748Z,19.50
2018-03-31T03:44:36.623Z,18.60
2018-03-31T03:46:37.472Z,17.47
2018-03-31T03:48:38.447Z,18.80
2018-03-31T03:50:39.451Z,18.77
2018-03-31T03:52:40.308Z,18.83
2018-03-31T03:54:41.164Z,19.50
2018-03-31T03:56:42.046Z,19.23
2018-03-31T03:58:43.002Z,18.53
2018-03-31T04:00:44.056Z,19.40
2018-03-31T04:02:45.867Z,20.47
2018-03-31T04:04:46.832Z,19.60
2018-03-31T04:06:47.840Z,20.60
2018-03-31T04:08:48.926Z,20.10
2018-03-31T04:10:49.921Z,19.60
2018-03-31T04:12:50.897Z,22.03
2018-03-31T04:14:52.613Z,20.60
2018-03-31T04:16:53.485Z,20.10
2018-03-31T04:18:54.352Z,19.67
2018-03-31T04:20:55.208Z,18.70
2018-03-31T04:22:56.061Z,17.97
2018-03-31T04:24:56.899Z,17.63
2018-03-31T04:26:57.784Z,18.50
2018-03-31T04:28:59.378Z,18.93
2018-03-31T04:31:00.228Z,20.13
2018-03-31T04:33:01.085Z,20.20
2018-03-31T04:35:01.935Z,18.77
2018-03-31T04:37:02.807Z,20.33
2018-03-31T04:39:03.685Z,21.10
2018-03-31T04:41:04.601Z,21.60
2018-03-31T04:43:06.310Z,22.23
2018-03-31T04:45:07.189Z,20.30
2018-03-31T04:47:08.040Z,19.80
2018-03-31T04:49:08.912Z,18.90
2018-03-31T04:51:10.515Z,21.77
2018-03-31T04:53:11.396Z,21.60
2018-03-31T04:55:12.252Z,19.13
2018-03-31T04:57:13.903Z,21.73
2018-03-31T04:59:15.616Z,20.87
2018-03-31T05:01:16.515Z,20.13
2018-03-31T05:03:18.191Z,21.83
2018-03-31T05:05:19.863Z,21.53
2018-03-31T05:07:20.728Z,20.47
2018-03-31T05:09:21.638Z,21.73
2018-03-31T05:11:23.248Z,22.73
2018-03-31T05:13:24.149Z,20.20
2018-03-31T05:15:25.756Z,23.57
2018-03-31T05:17:26.615Z,23.23
2018-03-31T05:19:27.508Z,21.53
2018-03-31T05:21:28.356Z,23.43
2018-03-31T05:23:29.227Z,22.83
2018-03-31T05:25:30.074Z,23.33
2018-03-31T05:27:30.921Z,22.33
2018-03-31T05:29:31.818Z,22.23
2018-03-31T05:31:32.795Z,25.20
2018-03-31T05:33:34.368Z,23.50
2018-03-31T05:35:35.224Z,23.67
2018-03-31T05:37:36.064Z,21.60
2018-03-31T05:39:36.922Z,23.30
2018-03-31T05:41:37.763Z,22.60
2018-03-31T05:43:38.611Z,23.30
2018-03-31T05:45:39.460Z,26.53
2018-03-31T05:47:40.303Z,24.67
2018-03-31T05:49:41.206Z,24.83
2018-03-31T05:51:42.083Z,22.27
2018-03-31T05:53:43.029Z,26.53
2018-03-31T05:55:43.998Z,25.60
2018-03-31T05:57:44.928Z,25.20
2018-03-31T05:59:46.607Z,26.73
2018-03-31T06:01:48.336Z,25.83
2018-03-31T06:03:49.234Z,25.23
2018-03-31T06:05:50.110Z,25.80
2018-03-31T06:07:50.956Z,26.30
2018-03-31T06:09:51.842Z,26.90
2018-03-31T06:11:53.427Z,25.27
2018-03-31T06:13:54.268Z,27.20
2018-03-31T06:15:55.115Z,26.13
2018-03-31T06:17:55.971Z,25.50
2018-03-31T06:19:56.845Z,26.13
2018-03-31T06:21:57.699Z,25.97
2018-03-31T06:23:58.564Z,26.43
2018-03-31T06:26:00.172Z,25.90
2018-03-31T06:28:01.030Z,24.53
2018-03-31T06:30:01.936Z,24.60
2018-03-31T06:32:02.884Z,25.77
2018-03-31T06:34:04.497Z,26.13
2018-03-31T06:36:05.356Z,28.37
2018-03-31T06:38:06.939Z,28.37
2018-03-31T06:40:07.844Z,25.40
2018-03-31T06:42:08.699Z,24.33
2018-03-31T06:44:09.531Z,27.00
2018-03-31T06:46:10.403Z,29.00
2018-03-31T06:48:12.104Z,26.43
2018-03-31T06:50:13.106Z,26.07
2018-03-31T06:52:14.858Z,28.47
2018-03-31T06:54:16.513Z,25.23
2018-03-31T06:56:17.505Z,25.40
2018-03-31T06:58:18.438Z,25.73
2018-03-31T07:00:20.020Z,24.93
2018-03-31T07:02:20.868Z,26.13
2018-03-31T07:04:21.717Z,26.63
2018-03-31T07:06:22.564Z,27.73
2018-03-31T07:08:23.429Z,26.13
2018-03-31T07:10:24.318Z,25.67
2018-03-31T07:12:25.164Z,26.63
2018-03-31T07:14:26.000Z,27.77
2018-03-31T07:16:26.872Z,25.90
2018-03-31T07:18:27.728Z,27.43
2018-03-31T07:20:28.596Z,24.67
2018-03-31T07:22:29.441Z,25.97
2018-03-31T07:24:30.324Z,29.10
2018-03-31T07:26:31.275Z,27.53
2018-03-31T07:28:32.176Z,25.27
2018-03-31T07:30:33.073Z,26.87
2018-03-31T07:32:33.915Z,25.27
2018-03-31T07:34:34.779Z,26.47
2018-03-31T07:36:35.630Z,27.93
2018-03-31T07:38:36.478Z,26.50
2018-03-31T07:40:37.358Z,28.13
2018-03-31T07:42:38.943Z,27.27
2018-03-31T07:44:39.829Z,27.07
2018-03-31T07:46:40.793Z,26.63
2018-03-31T07:48:42.456Z,25.60
2018-03-31T07:50:43.414Z,25.93
2018-03-31T07:52:45.078Z,25.70
2018-03-31T07:54:46.689Z,25.33
2018-03-31T07:56:47.602Z,25.10
2018-03-31T07:58:48.543Z,23.83
2018-03-31T08:00:49.403Z,26.10
2018-03-31T08:02:50.248Z,25.90
2018-03-31T08:04:51.101Z,24.70
2018-03-31T08:06:51.977Z,24.43
2018-03-31T08:08:52.868Z,25.10
2018-03-31T08:10:53.716Z,22.07
2018-03-31T08:12:54.564Z,25.70
2018-03-31T08:14:55.411Z,25.47
2018-03-31T08:16:56.262Z,24.10
2018-03-31T08:18:57.107Z,23.90
2018-03-31T08:20:57.965Z,26.87
2018-03-31T08:22:58.812Z,24.27
2018-03-31T08:24:59.655Z,25.03
2018-03-31T08:27:00.574Z,26.73
2018-03-31T08:29:02.447Z,23.87
2018-03-31T08:31:04.121Z,26.20
2018-03-31T08:33:04.991Z,28.13
2018-03-31T08:35:05.828Z,26.27
2018-03-31T08:37:06.693Z,25.63
2018-03-31T08:39:08.309Z,24.70
2018-03-31T08:41:09.150Z,28.97
2018-03-31T08:43:10.008Z,26.90
2018-03-31T08:45:10.863Z,26.47
2018-03-31T08:47:11.754Z,27.20
2018-03-31T08:49:12.720Z,26.90
2018-03-31T08:51:13.662Z,28.57
2018-03-31T08:53:14.583Z,28.33
2018-03-31T08:55:15.524Z,30.40
2018-03-31T08:57:17.183Z,26.80
2018-03-31T08:59:18.780Z,29.70
2018-03-31T09:01:19.659Z,29.83
2018-03-31T09:03:20.575Z,28.20
2018-03-31T09:05:21.440Z,24.93
2018-03-31T09:07:22.315Z,24.30
2018-03-31T09:09:23.935Z,25.43
2018-03-31T09:11:24.736Z,23.87
2018-03-31T09:13:25.579Z,23.27
2018-03-31T09:15:26.443Z,23.70
2018-03-31T09:17:27.298Z,23.63
2018-03-31T09:19:28.151Z,24.60
2018-03-31T09:21:28.987Z,24.63
2018-03-31T09:23:29.882Z,27.37
2018-03-31T09:25:30.816Z,26.30
2018-03-31T09:27:32.444Z,24.40
2018-03-31T09:29:33.303Z,24.07
2018-03-31T09:31:34.171Z,24.20
2018-03-31T09:33:35.775Z,25.10
2018-03-31T09:35:36.641Z,22.87
2018-03-31T09:37:37.494Z,22.13
2018-03-31T09:39:39.471Z,20.20
2018-03-31T09:41:40.332Z,21.97
2018-03-31T09:43:41.952Z,22.47
2018-03-31T09:45:42.969Z,21.90
2018-03-31T09:47:44.003Z,19.40
2018-03-31T09:49:45.225Z,21.70
2018-03-31T09:51:46.927Z,20.87
2018-03-31T09:53:47.900Z,22.10
2018-03-31T09:55:48.900Z,23.83
2018-03-31T09:57:50.506Z,21.83
2018-03-31T09:59:51.385Z,21.90
2018-03-31T10:01:52.219Z,21.17
2018-03-31T10:03:53.104Z,21.87
2018-03-31T10:05:53.998Z,22.07
2018-03-31T10:07:54.848Z,26.27
2018-03-31T10:09:55.704Z,20.17
2018-03-31T10:11:56.561Z,22.07
2018-03-31T10:13:58.218Z,22.50
2018-03-31T10:15:59.839Z,19.93
2018-03-31T10:18:01.037Z,25.63
2018-03-31T10:20:02.037Z,23.63
2018-03-31T10:22:02.981Z,21.90
2018-03-31T10:24:03.893Z,21.53
2018-03-31T10:26:04.752Z,24.07
2018-03-31T10:28:05.589Z,21.53
2018-03-31T10:30:06.441Z,23.90
2018-03-31T10:32:07.283Z,20.83
2018-03-31T10:34:08.148Z,20.70
2018-03-31T10:36:09.001Z,23.90
2018-03-31T10:38:09.848Z,21.33
2018-03-31T10:40:10.708Z,21.90
2018-03-31T10:42:11.563Z,20.53
2018-03-31T10:44:13.221Z,22.67
2018-03-31T10:46:14.917Z,20.93
2018-03-31T10:48:15.861Z,21.63
2018-03-31T10:50:16.901Z,22.00
2018-03-31T10:52:17.940Z,20.90
2018-03-31T10:54:18.997Z,23.27
2018-03-31T10:56:19.869Z,21.33
2018-03-31T10:58:21.451Z,22.87
2018-03-31T11:00:22.309Z,22.90
2018-03-31T11:02:23.492Z,23.97
2018-03-31T11:04:24.370Z,22.50
2018-03-31T11:06:25.229Z,21.77
2018-03-31T11:08:26.074Z,22.27
2018-03-31T11:10:26.959Z,24.37
2018-03-31T11:12:28.552Z,22.60
2018-03-31T11:14:29.457Z,22.33
2018-03-31T11:16:31.073Z,22.27
2018-03-31T11:18:31.933Z,22.17
2018-03-31T11:20:32.810Z,23.60
2018-03-31T11:22:34.416Z,23.60
2018-03-31T11:24:35.285Z,22.30
2018-03-31T11:26:36.154Z,22.60
2018-03-31T11:28:37.747Z,21.90
2018-03-31T11:30:38.776Z,23.60
2018-03-31T11:32:39.817Z,22.60
2018-03-31T11:34:40.768Z,21.67
2018-03-31T11:36:41.671Z,21.30
2018-03-31T11:38:42.514Z,20.47
2018-03-31T11:40:43.382Z,21.00
2018-03-31T11:42:45.052Z,20.70
2018-03-31T11:44:45.925Z,20.40
2018-03-31T11:46:46.767Z,21.70
2018-03-31T11:48:47.646Z,21.27
2018-03-31T11:50:48.527Z,20.27
2018-03-31T11:52:50.137Z,19.37
2018-03-31T11:54:51.075Z,21.17
2018-03-31T11:56:52.012Z,18.03
2018-03-31T11:58:52.960Z,21.75
2018-03-31T12:00:53.939Z,19.60
2018-03-31T12:02:54.877Z,18.83
2018-03-31T12:04:55.820Z,18.17
2018-03-31T12:06:56.725Z,18.10
2018-03-31T12:08:57.655Z,18.47
2018-03-31T12:10:59.357Z,16.77
2018-03-31T12:13:00.248Z,19.37
2018-03-31T12:15:01.852Z,17.13
2018-03-31T12:17:02.724Z,17.60
2018-03-31T12:19:03.569Z,17.03
2018-03-31T12:21:04.480Z,19.37
2018-03-31T12:23:05.291Z,17.43
2018-03-31T12:25:06.944Z,17.27
2018-03-31T12:27:07.841Z,16.30
2018-03-31T12:29:09.408Z,17.23
2018-03-31T12:31:10.348Z,16.03
2018-03-31T12:33:11.288Z,16.63
2018-03-31T12:35:12.924Z,16.43
2018-03-31T12:37:13.792Z,16.63
2018-03-31T12:39:14.760Z,19.57
2018-03-31T12:41:16.319Z,17.27
2018-03-31T12:43:17.197Z,17.20
2018-03-31T12:45:18.860Z,17.60
2018-03-31T12:47:20.641Z,15.70
2018-03-31T12:49:21.558Z,17.50
2018-03-31T12:51:22.594Z,15.40
2018-03-31T12:53:23.515Z,17.47
2018-03-31T12:55:24.496Z,16.60
2018-03-31T12:57:25.472Z,14.90
2018-03-31T12:59:26.336Z,15.97
2018-03-31T13:01:27.933Z,16.43
2018-03-31T13:03:28.790Z,15.83
2018-03-31T13:05:29.653Z,14.93
2018-03-31T13:07:31.242Z,15.23
2018-03-31T13:09:32.184Z,14.67
2018-03-31T13:11:33.075Z,14.87
2018-03-31T13:13:33.955Z,15.03
2018-03-31T13:15:34.812Z,13.33
2018-03-31T13:17:35.672Z,12.60
2018-03-31T13:19:36.576Z,12.90
2018-03-31T13:21:38.172Z,13.87
2018-03-31T13:23:39.065Z,13.73
2018-03-31T13:25:39.989Z,13.70
2018-03-31T13:27:40.892Z,13.00
2018-03-31T13:29:41.807Z,14.30
2018-03-31T13:31:43.400Z,12.87
2018-03-31T13:33:44.277Z,11.20
2018-03-31T13:35:45.138Z,12.77
2018-03-31T13:37:46.005Z,12.13
2018-03-31T13:39:47.604Z,12.27
2018-03-31T13:41:48.467Z,13.27
2018-03-31T13:43:49.337Z,13.00
2018-03-31T13:45:50.358Z,13.17
2018-03-31T13:47:51.354Z,12.13
2018-03-31T13:49:53.001Z,13.40
2018-03-31T13:51:54.670Z,12.77
2018-03-31T13:53:55.603Z,14.20
2018-03-31T13:55:56.532Z,13.57
2018-03-31T13:57:57.468Z,13.30
2018-03-31T13:59:58.400Z,13.30
2018-03-31T14:01:59.251Z,13.07
2018-03-31T14:04:00.117Z,13.17
2018-03-31T14:06:00.995Z,14.13
2018-03-31T14:08:02.584Z,13.73
2018-03-31T14:10:03.483Z,14.83
2018-03-31T14:12:04.296Z,13.27
2018-03-31T14:14:05.164Z,14.07
2018-03-31T14:16:06.136Z,13.07
2018-03-31T14:18:06.984Z,14.80
2018-03-31T14:20:07.853Z,13.80
2018-03-31T14:22:08.864Z,14.13
2018-03-31T14:24:09.776Z,13.70
2018-03-31T14:26:10.671Z,13.40
2018-03-31T14:28:11.535Z,13.77
2018-03-31T14:30:12.427Z,13.53
2018-03-31T14:32:13.263Z,13.40
2018-03-31T14:34:14.099Z,14.20
2018-03-31T14:36:14.968Z,14.53
2018-03-31T14:38:16.569Z,13.70
2018-03-31T14:40:17.428Z,13.60
2018-03-31T14:42:18.277Z,15.20
2018-03-31T14:44:19.173Z,15.33
2018-03-31T14:46:20.084Z,15.80
2018-03-31T14:48:21.803Z,16.20
2018-03-31T14:50:22.921Z,15.50
2018-03-31T14:52:23.887Z,16.20
2018-03-31T14:54:24.781Z,16.17
2018-03-31T14:56:25.737Z,15.70
2018-03-31T14:58:27.327Z,15.60
2018-03-31T15:00:28.180Z,18.07
2018-03-31T15:02:29.044Z,16.20
2018-03-31T15:04:29.915Z,18.00
2018-03-31T15:06:30.763Z,17.30
2018-03-31T15:08:31.620Z,17.00
2018-03-31T15:10:33.196Z,16.83
2018-03-31T15:12:34.084Z,17.10
2018-03-31T15:14:34.936Z,15.90
2018-03-31T15:16:35.784Z,16.87
2018-03-31T15:18:36.628Z,16.77
2018-03-31T15:20:37.543Z,16.90
2018-03-31T15:22:38.398Z,18.43
2018-03-31T15:24:39.315Z,19.20
2018-03-31T15:26:40.222Z,18.97
2018-03-31T15:28:41.249Z,17.23
2018-03-31T15:30:42.104Z,16.87
2018-03-31T15:32:42.956Z,18.73
2018-03-31T15:34:44.674Z,18.23
2018-03-31T15:36:46.264Z,16.73
2018-03-31T15:38:47.116Z,16.80
2018-03-31T15:40:48.052Z,17.30
2018-03-31T15:42:48.916Z,18.17
2018-03-31T15:44:49.784Z,15.70
2018-03-31T15:46:52.466Z,15.60
2018-03-31T15:48:53.449Z,16.17
2018-03-31T15:50:54.352Z,15.90
2018-03-31T15:52:55.270Z,14.63
2018-03-31T15:54:56.139Z,14.37
2018-03-31T15:56:57.118Z,14.03
2018-03-31T15:58:58.128Z,13.83
2018-03-31T16:00:59.955Z,14.47
2018-03-31T16:03:00.976Z,15.10
2018-03-31T16:05:01.913Z,13.27
2018-03-31T16:07:02.868Z,14.10
2018-03-31T16:09:03.737Z,13.90
2018-03-31T16:11:04.594Z,14.50
2018-03-31T16:13:05.448Z,12.67
2018-03-31T16:15:06.316Z,14.07
2018-03-31T16:17:07.936Z,15.40
2018-03-31T16:19:08.888Z,14.17
2018-03-31T16:21:09.740Z,14.57
2018-03-31T16:23:10.597Z,13.60
2018-03-31T16:25:11.523Z,13.60
2018-03-31T16:27:12.300Z,13.70
2018-03-31T16:29:13.220Z,15.10
2018-03-31T16:31:14.072Z,14.57
2018-03-31T16:33:14.963Z,13.53
2018-03-31T16:35:15.965Z,13.63
2018-03-31T16:37:17.603Z,14.20
2018-03-31T16:39:18.475Z,14.10
2018-03-31T16:41:20.059Z,14.17
2018-03-31T16:43:20.904Z,13.70
2018-03-31T16:45:21.787Z,14.10
2018-03-31T16:47:22.652Z,14.40
2018-03-31T16:49:23.508Z,13.37
2018-03-31T16:51:25.139Z,13.20
2018-03-31T16:53:26.035Z,13.27
2018-03-31T16:55:27.066Z,13.87
2018-03-31T16:57:28.056Z,15.73
2018-03-31T16:59:29.010Z,12.90
2018-03-31T17:01:29.932Z,14.40
2018-03-31T17:03:30.911Z,13.57
2018-03-31T17:05:31.890Z,13.77
2018-03-31T17:07:32.808Z,13.97
2018-03-31T17:09:33.668Z,14.30
2018-03-31T17:11:34.511Z,15.80
2018-03-31T17:13:35.386Z,13.50
2018-03-31T17:15:36.261Z,15.60
2018-03-31T17:17:37.115Z,21.73
2018-03-31T17:19:37.984Z,23.03
2018-03-31T17:21:38.864Z,31.93
2018-03-31T17:23:39.707Z,41.57
2018-03-31T17:25:40.568Z,36.60
2018-03-31T17:27:41.420Z,28.20
2018-03-31T17:29:42.270Z,26.03
2018-03-31T17:31:43.135Z,25.90
2018-03-31T17:33:44.027Z,23.60
2018-03-31T17:35:44.892Z,19.10
2018-03-31T17:37:45.816Z,17.93
2018-03-31T17:39:46.704Z,14.90
2018-03-31T17:41:47.669Z,15.47
2018-03-31T17:43:49.264Z,15.93
2018-03-31T17:45:50.145Z,16.03
2018-03-31T17:47:51.017Z,15.50
2018-03-31T17:49:51.872Z,17.03
2018-03-31T17:51:53.468Z,15.57
2018-03-31T17:53:54.333Z,13.83
2018-03-31T17:55:55.223Z,13.30
2018-03-31T17:57:56.860Z,13.10
2018-03-31T17:59:57.802Z,14.80
2018-03-31T18:01:58.752Z,16.10
2018-03-31T18:03:59.642Z,17.77
2018-03-31T18:06:00.544Z,17.70
2018-03-31T18:08:02.327Z,18.00
2018-03-31T18:10:03.942Z,17.07
2018-03-31T18:12:04.847Z,15.80
2018-03-31T18:14:05.695Z,16.60
2018-03-31T18:16:06.630Z,15.47
2018-03-31T18:18:07.437Z,16.17
2018-03-31T18:20:08.326Z,13.97
2018-03-31T18:22:09.224Z,13.53
2018-03-31T18:24:10.088Z,15.50
2018-03-31T18:26:10.978Z,13.00
2018-03-31T18:28:11.869Z,13.43
2018-03-31T18:30:12.744Z,14.37
2018-03-31T18:32:13.634Z,15.80
2018-03-31T18:34:14.534Z,14.67
2018-03-31T18:36:15.504Z,15.40
2018-03-31T18:38:16.436Z,17.77
2018-03-31T18:40:17.331Z,21.27
2018-03-31T18:42:18.274Z,16.37
2018-03-31T18:44:19.166Z,22.60
2018-03-31T18:46:20.058Z,26.17
2018-03-31T18:48:20.932Z,18.40
2018-03-31T18:50:22.571Z,18.30
2018-03-31T18:52:23.428Z,31.03
2018-03-31T18:54:24.264Z,29.57
2018-03-31T18:56:25.117Z,29.73
2018-03-31T18:58:27.634Z,31.03
2018-03-31T19:00:28.631Z,31.27
2018-03-31T19:02:29.583Z,21.03
2018-03-31T19:04:30.478Z,22.07
2018-03-31T19:06:31.405Z,21.97
2018-03-31T19:08:33.068Z,22.97
2018-03-31T19:10:33.924Z,21.93
2018-03-31T19:12:34.784Z,23.90
2018-03-31T19:14:41.755Z,24.50
2018-03-31T19:16:48.767Z,27.30
2018-03-31T19:18:49.618Z,29.97
2018-03-31T19:20:50.523Z,29.60
2018-03-31T19:22:51.402Z,28.07
2018-03-31T19:24:58.402Z,26.67
2018-03-31T19:27:00.100Z,25.40
2018-03-31T19:29:01.827Z,25.07
2018-03-31T19:31:02.720Z,25.53
2018-03-31T19:33:03.600Z,23.60
2018-03-31T19:35:04.489Z,19.50
2018-03-31T19:37:05.371Z,21.80
2018-03-31T19:39:06.344Z,22.87
2018-03-31T19:41:07.196Z,25.30
2018-03-31T19:43:08.070Z,27.00
2018-03-31T19:45:09.699Z,24.40
2018-03-31T19:47:10.559Z,21.37
2018-03-31T19:49:11.409Z,21.50
2018-03-31T19:51:13.025Z,13.80
2018-03-31T19:53:13.913Z,12.03
2018-03-31T19:55:15.567Z,11.77
2018-03-31T19:57:16.467Z,10.63
2018-03-31T19:59:17.383Z,9.80
2018-03-31T20:01:18.293Z,9.53
2018-03-31T20:03:19.217Z,9.70
2018-03-31T20:05:20.074Z,10.20
2018-03-31T20:07:20.927Z,10.27
2018-03-31T20:09:21.813Z,13.30
2018-03-31T20:11:22.627Z,14.27
2018-03-31T20:13:23.467Z,20.17
2018-03-31T20:15:24.345Z,23.67
2018-03-31T20:17:25.216Z,25.80
2018-03-31T20:19:26.099Z,23.70
2018-03-31T20:21:27.755Z,24.03
2018-03-31T20:23:28.661Z,25.73
2018-03-31T20:25:29.596Z,22.63
2018-03-31T20:27:30.535Z,20.50
2018-03-31T20:29:31.414Z,20.80
2018-03-31T20:31:32.354Z,17.77
2018-03-31T20:33:33.271Z,20.40
2018-03-31T20:35:34.121Z,21.43
2018-03-31T20:37:34.974Z,27.90
2018-03-31T20:39:35.916Z,25.30
2018-03-31T20:41:36.763Z,22.60
2018-03-31T20:43:37.629Z,22.10
2018-03-31T20:45:39.270Z,22.00
2018-03-31T20:47:40.175Z,29.27
2018-03-31T20:49:41.849Z,30.17
2018-03-31T20:51:42.960Z,28.67
2018-03-31T20:53:43.876Z,26.87
2018-03-31T20:55:44.788Z,24.20
2018-03-31T20:57:46.580Z,21.47
2018-03-31T20:59:47.471Z,20.67
2018-03-31T21:01:48.324Z,18.93
2018-03-31T21:03:49.948Z,20.03
2018-03-31T21:05:51.393Z,21.43
2018-03-31T21:07:52.319Z,24.33
2018-03-31T21:09:54.026Z,21.93
2018-03-31T21:11:55.057Z,20.30
2018-03-31T21:13:55.983Z,20.17
2018-03-31T21:15:57.001Z,21.00
2018-03-31T21:17:57.963Z,19.43
2018-03-31T21:19:59.160Z,22.47
2018-03-31T21:22:00.982Z,22.50
2018-03-31T21:24:02.040Z,23.40
2018-03-31T21:26:02.988Z,23.77
2018-03-31T21:28:04.038Z,24.37
2018-03-31T21:30:05.110Z,24.90
2018-03-31T21:32:06.142Z,23.00
2018-03-31T21:34:07.047Z,26.20
2018-03-31T21:36:08.001Z,23.97
2018-03-31T21:38:08.900Z,24.20
2018-03-31T21:40:09.812Z,23.40
2018-03-31T21:42:10.727Z,23.83
2018-03-31T21:44:11.621Z,23.30
2018-03-31T21:46:12.563Z,23.30
2018-03-31T21:48:13.491Z,23.67
2018-03-31T21:50:14.349Z,23.33
2018-03-31T21:52:15.303Z,24.80
2018-03-31T21:54:16.428Z,24.93
2018-03-31T21:56:17.337Z,27.70
2018-03-31T21:58:18.183Z,25.17
2018-03-31T22:00:19.844Z,26.10
2018-03-31T22:02:20.741Z,27.23
2018-03-31T22:04:22.618Z,24.57
2018-03-31T22:06:24.295Z,25.13
2018-03-31T22:08:26.028Z,26.03
2018-03-31T22:10:27.000Z,25.87
2018-03-31T22:12:27.934Z,26.93
2018-03-31T22:14:35.189Z,26.90
2018-03-31T22:16:36.143Z,28.13
2018-03-31T22:18:37.025Z,25.60
2018-03-31T22:20:37.930Z,26.67
2018-03-31T22:22:38.883Z,27.37
2018-03-31T22:24:39.865Z,26.73
2018-03-31T22:26:40.733Z,26.50
2018-03-31T22:28:41.647Z,24.90
2018-03-31T22:30:42.517Z,26.50
2018-03-31T22:32:45.168Z,28.33
2018-03-31T22:34:46.065Z,29.23
2018-03-31T22:36:46.996Z,29.20
2018-03-31T22:38:47.938Z,31.83
2018-03-31T22:40:48.889Z,34.43
2018-03-31T22:42:49.829Z,32.57
2018-03-31T22:44:50.789Z,31.77
2018-03-31T22:46:51.660Z,34.80
2018-03-31T22:48:52.556Z,33.00
2018-03-31T22:50:54.236Z,35.80
2018-03-31T22:52:55.177Z,35.63
2018-03-31T22:54:56.094Z,34.77
2018-03-31T22:56:57.049Z,34.80
2018-03-31T22:58:59.192Z,34.67
2018-03-31T23:01:00.315Z,35.10
2018-03-31T23:03:01.350Z,37.53
2018-03-31T23:05:02.407Z,34.90
2018-03-31T23:07:03.527Z,33.57
2018-03-31T23:09:05.150Z,35.40
2018-03-31T23:11:06.050Z,33.97
2018-03-31T23:13:06.985Z,31.17
2018-03-31T23:15:07.872Z,31.47
2018-03-31T23:17:08.805Z,30.00
2018-03-31T23:19:10.007Z,30.87
2018-03-31T23:21:11.416Z,31.17
2018-03-31T23:23:12.316Z,34.73
2018-03-31T23:25:13.979Z,36.43
2018-03-31T23:27:15.672Z,35.23
2018-03-31T23:29:17.783Z,35.20
2018-03-31T23:31:19.461Z,35.60
2018-03-31T23:33:20.407Z,38.97
2018-03-31T23:35:21.261Z,32.77
2018-03-31T23:37:23.688Z,35.70
2018-03-31T23:39:24.635Z,37.10
2018-03-31T23:41:25.496Z,36.67
2018-03-31T23:43:26.434Z,35.90
2018-03-31T23:45:27.412Z,39.80
2018-03-31T23:47:29.148Z,39.53
2018-03-31T23:49:30.107Z,42.00
2018-03-31T23:51:31.070Z,39.60
2018-03-31T23:53:32.124Z,43.93
2018-03-31T23:55:33.773Z,42.57
2018-03-31T23:57:34.682Z,41.20
2018-03-31T23:59:35.549Z,39.87
